Time;durP1;ratioP1;P1;durP2;ratioP2;P2;SDS_P1;SDS_P2;PMS_P1;PMS_P2;Temp;Humidity;BMP_temperature;BMP_pressure;BME280_temperature;BME280_humidity;BME280_pressure;Samples;Min_cycle;Max_cycle;Signal;HPM_P1;HPM_P2
2022/05/29 00:00:18;;;;;;;3.10;2.00;;;20.60;46.80;;;;;;4973351;28;20268;-70
2022/05/29 00:02:44;;;;;;;1.65;1.55;;;20.60;46.90;;;;;;4973317;28;20685;-70
2022/05/29 00:05:12;;;;;;;2.50;2.00;;;20.60;46.90;;;;;;4973151;28;20213;-71
2022/05/29 00:07:40;;;;;;;3.40;1.83;;;20.60;46.90;;;;;;4974654;28;20209;-71
2022/05/29 00:10:09;;;;;;;2.63;1.77;;;20.60;46.80;;;;;;4975108;28;20197;-71
2022/05/29 00:12:39;;;;;;;2.55;1.98;;;20.60;46.90;;;;;;4977037;28;20671;-71
2022/05/29 00:15:08;;;;;;;3.10;2.00;;;20.60;46.90;;;;;;4976991;28;20232;-71
2022/05/29 00:17:37;;;;;;;2.00;1.80;;;20.60;47.00;;;;;;4978078;28;20221;-71
2022/05/29 00:20:04;;;;;;;2.22;1.90;;;20.60;47.00;;;;;;4976879;28;20691;-71
2022/05/29 00:22:32;;;;;;;2.92;1.80;;;20.60;47.20;;;;;;4976805;28;20208;-70
2022/05/29 00:24:59;;;;;;;3.33;1.90;;;20.60;47.10;;;;;;4978837;28;20197;-71
2022/05/29 00:27:25;;;;;;;2.38;1.80;;;20.60;47.10;;;;;;4976805;28;20218;-71
2022/05/29 00:29:53;;;;;;;2.10;1.90;;;20.60;47.20;;;;;;4976775;28;20229;-71
2022/05/29 00:32:20;;;;;;;1.70;1.60;;;20.60;47.30;;;;;;4977844;28;20737;-70
2022/05/29 00:34:48;;;;;;;2.08;1.88;;;20.60;47.30;;;;;;4976434;28;20226;-71
2022/05/29 00:37:15;;;;;;;1.83;1.73;;;20.60;47.30;;;;;;4977875;28;20671;-71
2022/05/29 00:39:42;;;;;;;2.10;1.90;;;20.60;47.50;;;;;;4976513;28;20212;-71
2022/05/29 00:42:11;;;;;;;2.10;1.90;;;20.60;47.40;;;;;;4976410;28;20257;-71
2022/05/29 00:44:38;;;;;;;2.25;1.75;;;20.50;47.40;;;;;;4976446;28;20194;-70
2022/05/29 00:47:11;;;;;;;2.08;1.88;;;20.50;47.40;;;;;;4976256;28;20321;-71
2022/05/29 00:49:39;;;;;;;2.58;1.90;;;20.50;47.40;;;;;;4976381;28;20195;-71
2022/05/29 00:52:09;;;;;;;2.67;1.80;;;20.50;47.50;;;;;;4976569;28;20233;-71
2022/05/29 00:54:42;;;;;;;2.05;1.77;;;20.50;47.30;;;;;;4977375;28;20217;-71
2022/05/29 00:57:10;;;;;;;2.45;1.92;;;20.50;47.40;;;;;;4977537;28;20206;-71
2022/05/29 00:59:37;;;;;;;2.60;2.10;;;20.50;48.00;;;;;;4976319;28;20202;-71
2022/05/29 01:02:04;;;;;;;3.08;1.90;;;20.40;47.30;;;;;;4977532;28;20277;-71
2022/05/29 01:04:31;;;;;;;2.95;2.20;;;20.50;47.40;;;;;;4976275;28;20607;-71
2022/05/29 01:06:59;;;;;;;3.22;1.83;;;20.50;47.50;;;;;;4976002;28;20222;-71
2022/05/29 01:09:28;;;;;;;2.85;1.98;;;20.50;48.00;;;;;;4976023;28;20202;-71
2022/05/29 01:12:03;;;;;;;3.65;2.28;;;20.50;47.50;;;;;;4977175;28;20213;-71
2022/05/29 01:14:37;;;;;;;2.78;2.20;;;20.50;47.50;;;;;;4975882;28;20233;-71
2022/05/29 01:17:08;;;;;;;2.67;2.08;;;20.40;47.50;;;;;;4976003;28;20769;-71
2022/05/29 01:19:47;;;;;;;2.97;2.00;;;20.50;47.70;;;;;;4976118;28;20222;-71
2022/05/29 01:22:21;;;;;;;2.05;1.90;;;20.50;47.60;;;;;;4976521;28;20188;-70
2022/05/29 01:25:19;;;;;;;2.80;2.10;;;20.40;47.50;;;;;;4976250;28;20210;-71
2022/05/29 01:28:10;;;;;;;2.60;2.30;;;20.50;47.50;;;;;;4975665;28;20222;-71
2022/05/29 01:30:39;;;;;;;2.22;2.03;;;20.50;47.50;;;;;;4976940;28;20175;-71
2022/05/29 01:33:09;;;;;;;2.10;1.85;;;20.40;47.60;;;;;;4976753;28;20293;-71
2022/05/29 01:35:37;;;;;;;2.97;2.13;;;20.50;47.70;;;;;;4975484;28;20198;-70
2022/05/29 01:38:07;;;;;;;1.77;1.67;;;20.40;47.60;;;;;;4975640;28;20218;-71
2022/05/29 01:40:37;;;;;;;2.03;1.90;;;20.40;48.20;;;;;;4975549;28;20210;-71
2022/05/29 01:43:10;;;;;;;2.13;1.92;;;20.40;47.60;;;;;;4975472;28;20288;-71
2022/05/29 01:45:54;;;;;;;2.00;1.80;;;20.40;47.70;;;;;;4976602;28;20175;-70
2022/05/29 01:48:28;;;;;;;2.85;2.10;;;20.40;47.60;;;;;;4975422;28;20194;-71
2022/05/29 01:50:56;;;;;;;2.88;1.98;;;20.40;48.30;;;;;;4975441;28;20638;-71
2022/05/29 01:53:24;;;;;;;2.60;2.00;;;20.40;47.60;;;;;;4975284;28;20222;-70
2022/05/29 01:55:52;;;;;;;2.25;2.05;;;20.40;47.70;;;;;;4975364;28;20198;-71
2022/05/29 01:58:23;;;;;;;3.00;2.15;;;20.40;47.80;;;;;;4975223;28;20776;-70
2022/05/29 02:00:50;;;;;;;2.20;2.00;;;20.40;47.80;;;;;;4975218;28;20195;-71
2022/05/29 02:03:19;;;;;;;2.13;1.90;;;20.40;47.60;;;;;;4975086;28;20607;-70
2022/05/29 02:05:52;;;;;;;2.40;2.20;;;20.40;47.70;;;;;;4976243;28;20190;-70
2022/05/29 02:08:20;;;;;;;4.40;2.10;;;20.40;47.80;;;;;;4975198;28;20222;-70
2022/05/29 02:10:49;;;;;;;2.30;2.10;;;20.30;47.70;;;;;;4974926;28;20206;-71
2022/05/29 02:13:20;;;;;;;5.90;2.10;;;20.30;47.70;;;;;;4977125;28;20197;-71
2022/05/29 02:15:51;;;;;;;2.75;2.22;;;20.30;47.80;;;;;;4975804;28;20216;-70
2022/05/29 02:18:21;;;;;;;3.08;2.30;;;20.40;47.80;;;;;;4976467;28;20809;-70
2022/05/29 02:20:49;;;;;;;2.05;1.85;;;20.30;47.80;;;;;;4976585;28;20194;-71
2022/05/29 02:23:20;;;;;;;2.08;1.80;;;20.30;47.60;;;;;;4976480;28;20201;-71
2022/05/29 02:25:47;;;;;;;3.58;2.00;;;20.30;47.70;;;;;;4975924;28;20179;-70
2022/05/29 02:28:17;;;;;;;2.10;1.95;;;20.30;47.80;;;;;;4974648;28;20230;-70
2022/05/29 02:30:46;;;;;;;2.15;1.85;;;20.30;47.80;;;;;;4975886;28;20196;-71
2022/05/29 02:33:18;;;;;;;2.92;2.00;;;20.40;47.90;;;;;;4975444;28;20277;-71
2022/05/29 02:35:50;;;;;;;2.10;1.90;;;20.30;47.80;;;;;;4974546;28;20187;-70
2022/05/29 02:38:20;;;;;;;2.15;1.90;;;20.30;47.80;;;;;;4974324;28;20214;-70
2022/05/29 02:40:51;;;;;;;2.45;1.90;;;20.30;47.80;;;;;;4975667;28;20201;-70
2022/05/29 02:43:20;;;;;;;1.83;1.70;;;20.30;47.70;;;;;;4975749;28;20178;-70
2022/05/29 02:45:51;;;;;;;2.63;1.70;;;20.30;48.40;;;;;;4974981;28;20304;-70
2022/05/29 02:48:23;;;;;;;2.65;1.80;;;20.30;47.70;;;;;;4974091;28;20593;-70
2022/05/29 02:50:53;;;;;;;1.80;1.70;;;20.30;47.70;;;;;;4974338;28;20193;-70
2022/05/29 02:53:20;;;;;;;2.28;1.88;;;20.30;47.80;;;;;;4975931;28;20241;-70
2022/05/29 02:55:47;;;;;;;2.20;1.88;;;20.30;47.80;;;;;;4974067;28;20292;-70
2022/05/29 02:58:19;;;;;;;2.28;1.75;;;20.30;48.40;;;;;;4973914;28;20564;-71
2022/05/29 03:00:59;;;;;;;2.17;1.70;;;20.30;47.60;;;;;;4974356;28;20282;-70
2022/05/29 03:03:31;;;;;;;2.28;1.90;;;20.30;47.70;;;;;;4975787;28;20647;-71
2022/05/29 03:06:05;;;;;;;2.58;1.60;;;20.30;47.70;;;;;;4975344;28;20178;-71
2022/05/29 03:08:41;;;;;;;1.85;1.60;;;20.30;47.80;;;;;;4974000;28;20667;-71
2022/05/29 03:11:11;;;;;;;1.60;1.50;;;20.30;47.80;;;;;;4975358;28;20655;-71
2022/05/29 03:13:44;;;;;;;1.88;1.70;;;20.40;48.00;;;;;;4973755;28;20205;-70
2022/05/29 03:16:25;;;;;;;1.80;1.70;;;20.30;47.70;;;;;;4975099;28;20770;-71
2022/05/29 03:18:57;;;;;;;1.70;1.60;;;20.40;47.80;;;;;;4974331;28;20198;-71
2022/05/29 03:21:26;;;;;;;1.55;1.45;;;20.50;47.80;;;;;;4973962;28;20229;-71
2022/05/29 03:23:56;;;;;;;2.10;1.90;;;20.50;47.60;;;;;;4973634;28;20198;-70
2022/05/29 03:26:27;;;;;;;2.03;1.70;;;20.50;47.50;;;;;;4973533;28;20317;-70
2022/05/29 03:28:57;;;;;;;1.88;1.77;;;20.60;47.30;;;;;;4973867;28;20202;-70
2022/05/29 03:31:25;;;;;;;1.70;1.60;;;20.60;48.10;;;;;;4973632;28;20208;-70
2022/05/29 03:33:53;;;;;;;2.03;1.70;;;20.60;47.30;;;;;;4973605;28;20276;-70
2022/05/29 03:36:23;;;;;;;2.33;1.73;;;20.70;47.20;;;;;;4973363;28;20321;-70
2022/05/29 03:38:50;;;;;;;2.40;1.70;;;20.70;47.10;;;;;;4973448;28;20248;-70
2022/05/29 03:41:23;;;;;;;2.08;1.70;;;20.70;46.70;;;;;;4973698;28;20204;-70
2022/05/29 03:43:50;;;;;;;1.83;1.60;;;20.70;46.90;;;;;;4973937;28;20209;-70
2022/05/29 03:46:16;;;;;;;2.00;1.60;;;20.80;47.00;;;;;;4977499;28;20216;-71
2022/05/29 03:48:44;;;;;;;1.70;1.60;;;20.80;46.80;;;;;;4977434;28;20213;-70
2022/05/29 03:51:12;;;;;;;2.15;1.70;;;20.80;46.90;;;;;;4977549;28;20284;-70
2022/05/29 03:53:40;;;;;;;1.80;1.70;;;20.80;46.70;;;;;;4977331;28;20209;-70
2022/05/29 03:56:06;;;;;;;1.98;1.77;;;20.80;46.70;;;;;;4977236;28;20206;-70
2022/05/29 03:58:34;;;;;;;1.98;1.70;;;20.80;46.80;;;;;;4977299;28;20667;-70
2022/05/29 04:01:01;;;;;;;1.60;1.50;;;20.80;46.90;;;;;;4977164;28;20204;-70
2022/05/29 04:03:28;;;;;;;2.13;1.67;;;20.80;46.90;;;;;;4978440;28;20194;-71
2022/05/29 04:05:55;;;;;;;1.98;1.88;;;20.80;46.70;;;;;;4977103;28;20198;-70
2022/05/29 04:13:52;;;;;;;2.55;1.75;;;20.80;46.50;;;;;;4978162;28;20174;-70
2022/05/29 04:16:19;;;;;;;1.75;1.60;;;20.80;46.70;;;;;;4976916;28;20321;-70
2022/05/29 04:18:46;;;;;;;1.70;1.60;;;20.80;46.50;;;;;;4976984;28;20289;-70
2022/05/29 04:21:13;;;;;;;2.17;1.95;;;20.80;46.60;;;;;;4978117;28;20190;-70
2022/05/29 04:23:41;;;;;;;2.35;1.70;;;20.80;46.70;;;;;;4978267;28;20662;-71
2022/05/29 04:26:09;;;;;;;2.58;1.65;;;20.80;46.50;;;;;;4976762;28;20245;-70
2022/05/29 04:28:35;;;;;;;2.00;1.67;;;20.80;46.50;;;;;;4978091;28;20194;-70
2022/05/29 04:31:03;;;;;;;2.03;1.80;;;20.80;46.70;;;;;;4976653;28;20198;-70
2022/05/29 04:33:30;;;;;;;3.10;1.80;;;20.80;46.40;;;;;;4976634;28;20205;-70
2022/05/29 04:35:57;;;;;;;2.20;1.67;;;20.80;46.40;;;;;;4976454;28;20253;-70
2022/05/29 04:38:24;;;;;;;1.65;1.55;;;20.80;46.40;;;;;;4976900;28;20621;-70
2022/05/29 04:40:53;;;;;;;2.00;1.75;;;20.80;46.40;;;;;;4976481;28;20314;-71
2022/05/29 04:43:20;;;;;;;2.20;1.50;;;20.80;46.40;;;;;;4976522;28;20202;-70
2022/05/29 04:45:47;;;;;;;1.65;1.42;;;20.80;46.40;;;;;;4976423;28;20194;-70
2022/05/29 04:48:16;;;;;;;1.80;1.70;;;20.80;46.30;;;;;;4977631;28;20706;-70
2022/05/29 04:50:43;;;;;;;1.90;1.70;;;20.80;46.40;;;;;;4976456;28;20578;-70
2022/05/29 04:53:12;;;;;;;2.58;1.60;;;20.70;46.30;;;;;;4976905;28;20234;-70
2022/05/29 04:55:39;;;;;;;2.03;1.80;;;20.70;46.30;;;;;;4977373;28;20218;-70
2022/05/29 04:58:07;;;;;;;2.90;1.42;;;20.70;46.30;;;;;;4975078;28;20308;-70
2022/05/29 05:00:35;;;;;;;2.03;1.50;;;20.70;46.40;;;;;;4977592;28;20710;-70
2022/05/29 05:03:02;;;;;;;1.90;1.50;;;20.70;46.30;;;;;;4976204;28;20202;-70
2022/05/29 05:05:29;;;;;;;1.90;1.70;;;20.70;46.40;;;;;;4977381;28;20197;-70
2022/05/29 05:07:56;;;;;;;1.52;1.42;;;20.70;46.50;;;;;;4975974;28;20276;-70
2022/05/29 05:10:23;;;;;;;1.70;1.60;;;20.70;46.30;;;;;;4977338;28;20195;-70
2022/05/29 05:12:51;;;;;;;1.50;1.40;;;20.70;46.40;;;;;;4975975;28;20731;-70
2022/05/29 05:15:19;;;;;;;1.80;1.70;;;20.70;46.30;;;;;;4975733;28;20707;-70
2022/05/29 05:17:47;;;;;;;2.10;1.60;;;20.70;46.30;;;;;;4975881;28;20218;-70
2022/05/29 05:20:14;;;;;;;1.85;1.60;;;20.70;46.50;;;;;;4976010;28;20688;-70
2022/05/29 05:22:41;;;;;;;1.67;1.58;;;20.80;46.90;;;;;;4975839;28;20750;-70
2022/05/29 05:25:09;;;;;;;3.20;1.67;;;20.70;46.70;;;;;;4975791;28;20194;-71
2022/05/29 05:27:36;;;;;;;1.83;1.60;;;20.70;46.90;;;;;;4975678;28;20725;-70
2022/05/29 05:30:05;;;;;;;1.77;1.60;;;20.70;46.90;;;;;;4977099;28;20237;-71
2022/05/29 05:32:34;;;;;;;2.75;1.63;;;20.70;47.10;;;;;;4975230;28;20202;-70
2022/05/29 05:35:04;;;;;;;1.60;1.50;;;20.70;47.30;;;;;;4976755;28;20757;-70
2022/05/29 05:37:31;;;;;;;2.30;1.65;;;20.70;47.30;;;;;;4975457;28;20225;-70
2022/05/29 05:39:58;;;;;;;1.88;1.70;;;20.70;47.40;;;;;;4976753;28;20241;-71
2022/05/29 05:42:25;;;;;;;2.70;1.67;;;20.70;48.10;;;;;;4976571;28;20201;-70
2022/05/29 05:44:53;;;;;;;1.67;1.58;;;20.70;47.60;;;;;;4983948;28;20225;-71
2022/05/29 05:47:23;;;;;;;1.75;1.60;;;20.70;47.60;;;;;;4983517;28;20226;-71
2022/05/29 05:49:52;;;;;;;1.70;1.60;;;20.60;47.50;;;;;;4976410;28;20666;-71
2022/05/29 05:52:18;;;;;;;1.75;1.65;;;20.60;47.40;;;;;;4975519;28;20219;-70
2022/05/29 05:54:46;;;;;;;2.42;1.50;;;20.60;47.40;;;;;;4977085;28;20218;-71
2022/05/29 05:57:13;;;;;;;2.17;1.92;;;20.70;47.50;;;;;;4975877;28;20222;-70
2022/05/29 05:59:41;;;;;;;1.80;1.70;;;20.70;47.50;;;;;;4976046;28;20671;-71
2022/05/29 06:02:09;;;;;;;2.97;1.50;;;20.70;47.50;;;;;;4976088;28;20293;-71
2022/05/29 06:04:37;;;;;;;1.80;1.70;;;20.70;47.30;;;;;;4976631;28;20269;-71
2022/05/29 06:07:06;;;;;;;2.88;1.80;;;20.70;47.30;;;;;;4976024;28;20593;-71
2022/05/29 06:09:33;;;;;;;1.85;1.75;;;20.80;47.40;;;;;;4974712;28;20560;-71
2022/05/29 06:12:01;;;;;;;3.40;1.70;;;20.80;47.20;;;;;;4974897;28;20578;-71
2022/05/29 06:14:27;;;;;;;2.00;1.70;;;20.80;47.20;;;;;;4974657;28;20202;-71
2022/05/29 06:16:55;;;;;;;2.40;1.75;;;20.80;47.20;;;;;;4974871;28;20244;-70
2022/05/29 06:19:22;;;;;;;1.63;1.52;;;20.90;47.10;;;;;;4974657;28;20223;-70
2022/05/29 06:21:49;;;;;;;2.00;1.80;;;20.90;47.10;;;;;;4975705;28;20198;-71
2022/05/29 06:24:17;;;;;;;2.35;1.80;;;21.00;46.70;;;;;;4974678;28;20694;-71
2022/05/29 06:26:44;;;;;;;3.78;1.80;;;21.10;46.70;;;;;;4974680;28;20261;-71
2022/05/29 06:29:11;;;;;;;2.65;1.70;;;21.10;46.70;;;;;;4975676;28;20198;-71
2022/05/29 06:31:38;;;;;;;2.00;1.42;;;21.30;46.80;;;;;;4974587;28;20194;-71
2022/05/29 06:34:05;;;;;;;2.05;1.70;;;21.50;46.50;;;;;;4974384;28;20213;-71
2022/05/29 06:36:32;;;;;;;1.67;1.58;;;21.90;46.10;;;;;;4974949;28;20229;-71
2022/05/29 06:38:59;;;;;;;1.80;1.60;;;22.20;45.30;;;;;;4975785;28;20236;-71
2022/05/29 06:41:29;;;;;;;2.78;1.70;;;22.50;44.80;;;;;;4974279;28;20201;-70
2022/05/29 06:43:55;;;;;;;1.63;1.50;;;22.60;43.90;;;;;;4974255;28;20234;-70
2022/05/29 06:46:22;;;;;;;2.10;1.60;;;22.70;43.60;;;;;;4975485;28;20691;-71
2022/05/29 06:48:49;;;;;;;2.05;1.50;;;22.80;43.50;;;;;;4975398;28;20194;-70
2022/05/29 06:51:19;;;;;;;2.10;1.45;;;22.80;43.20;;;;;;4975463;28;20204;-70
2022/05/29 06:53:46;;;;;;;1.52;1.42;;;22.90;43.40;;;;;;4975524;28;20664;-71
2022/05/29 06:56:13;;;;;;;1.55;1.45;;;22.90;43.50;;;;;;4975571;28;20301;-71
2022/05/29 06:58:42;;;;;;;1.52;1.42;;;22.80;43.20;;;;;;4974279;28;20225;-71
2022/05/29 07:09:24;;;;;;;1.50;1.40;;;23.10;42.50;;;;;;4974305;28;20194;-70
2022/05/29 07:11:52;;;;;;;1.92;1.60;;;23.20;42.50;;;;;;4975036;28;20752;-71
2022/05/29 07:14:21;;;;;;;1.60;1.50;;;23.30;42.50;;;;;;4975139;28;20190;-71
2022/05/29 07:16:48;;;;;;;1.52;1.42;;;23.20;42.20;;;;;;4973630;28;20237;-71
2022/05/29 07:19:18;;;;;;;1.70;1.60;;;23.30;42.00;;;;;;4973600;28;20202;-71
2022/05/29 07:21:45;;;;;;;1.50;1.40;;;23.30;42.20;;;;;;4973546;28;20194;-71
2022/05/29 07:24:13;;;;;;;1.67;1.40;;;23.20;41.90;;;;;;4973815;28;20194;-71
2022/05/29 07:26:40;;;;;;;1.98;1.30;;;23.10;42.20;;;;;;4973797;28;20281;-70
2022/05/29 07:29:07;;;;;;;1.42;1.33;;;23.10;42.40;;;;;;4973636;28;20253;-71
2022/05/29 07:31:35;;;;;;;2.38;1.45;;;23.10;42.30;;;;;;4974848;28;20216;-71
2022/05/29 07:34:02;;;;;;;1.50;1.40;;;23.10;42.20;;;;;;4973862;28;20202;-71
2022/05/29 07:36:29;;;;;;;2.10;1.60;;;23.10;42.00;;;;;;4974631;28;20233;-71
2022/05/29 07:38:57;;;;;;;1.50;1.40;;;23.10;41.90;;;;;;4973600;28;20293;-71
2022/05/29 07:44:08;;;;;;;1.55;1.30;;;23.30;41.60;;;;;;4973529;28;20279;-71
2022/05/29 07:46:37;;;;;;;2.50;1.50;;;23.40;41.80;;;;;;4973365;28;20245;-71
2022/05/29 07:49:04;;;;;;;1.65;1.42;;;23.40;41.20;;;;;;4973424;28;20257;-71
2022/05/29 07:51:31;;;;;;;1.52;1.40;;;23.40;41.70;;;;;;4974606;28;20186;-71
2022/05/29 07:53:58;;;;;;;1.63;1.50;;;23.40;41.80;;;;;;4973601;28;20240;-71
2022/05/29 07:56:25;;;;;;;2.10;1.52;;;23.40;42.10;;;;;;4973172;28;20288;-71
2022/05/29 07:58:52;;;;;;;1.70;1.60;;;23.40;41.70;;;;;;4973344;28;20578;-71
2022/05/29 08:01:20;;;;;;;2.47;1.50;;;23.40;41.30;;;;;;4974537;28;20194;-71
2022/05/29 08:03:48;;;;;;;3.67;1.55;;;23.50;41.50;;;;;;4973316;28;20636;-70
2022/05/29 08:06:15;;;;;;;2.28;1.65;;;23.50;42.00;;;;;;4973410;28;20197;-71
2022/05/29 08:08:42;;;;;;;2.13;1.55;;;23.50;41.60;;;;;;4973255;28;20208;-71
2022/05/29 08:11:09;;;;;;;1.70;1.60;;;23.50;41.80;;;;;;4973242;28;20202;-71
2022/05/29 08:13:37;;;;;;;2.17;1.60;;;23.50;41.70;;;;;;4973295;28;20194;-71
2022/05/29 08:16:05;;;;;;;1.60;1.50;;;23.60;41.60;;;;;;4973069;28;20614;-71
2022/05/29 08:18:32;;;;;;;2.00;1.50;;;23.70;41.60;;;;;;4973523;28;20210;-70
2022/05/29 08:21:01;;;;;;;1.48;1.38;;;23.70;41.20;;;;;;4974335;28;20269;-71
2022/05/29 08:23:28;;;;;;;2.13;1.80;;;23.60;41.10;;;;;;4973439;28;20206;-71
2022/05/29 08:31:25;;;;;;;1.73;1.63;;;23.50;41.00;;;;;;4974159;28;20259;-70
2022/05/29 08:33:52;;;;;;;1.85;1.67;;;23.40;41.20;;;;;;4976824;28;20209;-71
2022/05/29 08:36:24;;;;;;;1.95;1.52;;;23.40;41.20;;;;;;4977857;28;20264;-71
2022/05/29 08:38:52;;;;;;;1.65;1.50;;;23.40;41.90;;;;;;4977949;28;20598;-71
2022/05/29 08:41:21;;;;;;;1.63;1.50;;;23.30;42.00;;;;;;4976624;28;20237;-71
2022/05/29 08:43:54;;;;;;;1.60;1.50;;;23.30;42.00;;;;;;4977967;28;20273;-71
2022/05/29 08:46:23;;;;;;;1.50;1.40;;;23.40;42.30;;;;;;4976464;28;20728;-71
2022/05/29 08:48:50;;;;;;;1.88;1.40;;;23.40;42.30;;;;;;4976392;28;20205;-71
2022/05/29 08:51:33;;;;;;;1.65;1.55;;;23.40;42.30;;;;;;4976660;28;20201;-71
2022/05/29 08:54:08;;;;;;;1.90;1.67;;;23.40;42.10;;;;;;4976335;28;20671;-71
2022/05/29 08:56:38;;;;;;;1.85;1.70;;;23.50;42.10;;;;;;4976248;28;20225;-70
2022/05/29 08:59:09;;;;;;;1.98;1.60;;;23.50;41.90;;;;;;4976310;28;20228;-71
2022/05/29 09:01:42;;;;;;;1.65;1.33;;;23.50;42.20;;;;;;4976303;28;20594;-71
2022/05/29 09:04:12;;;;;;;1.45;1.30;;;23.60;41.90;;;;;;4976506;28;20194;-70
2022/05/29 09:06:42;;;;;;;1.90;1.60;;;23.70;41.80;;;;;;4976082;28;20218;-71
2022/05/29 09:09:13;;;;;;;1.58;1.48;;;23.70;42.40;;;;;;4976080;28;20190;-71
2022/05/29 09:11:44;;;;;;;2.22;1.70;;;23.70;42.20;;;;;;4976296;28;20189;-71
2022/05/29 09:14:15;;;;;;;1.70;1.58;;;23.70;42.30;;;;;;4976058;28;20253;-70
2022/05/29 09:16:45;;;;;;;1.80;1.50;;;23.70;41.80;;;;;;4976074;28;20252;-71
2022/05/29 09:19:21;;;;;;;2.13;1.67;;;23.70;41.80;;;;;;4977043;28;20194;-71
2022/05/29 09:21:53;;;;;;;1.63;1.42;;;23.70;41.80;;;;;;4975852;28;20197;-71
2022/05/29 09:24:43;;;;;;;1.50;1.40;;;23.60;41.80;;;;;;4977176;28;20186;-71
2022/05/29 09:27:10;;;;;;;1.60;1.50;;;23.60;41.80;;;;;;4976571;28;20228;-71
2022/05/29 09:29:38;;;;;;;1.73;1.60;;;23.60;41.60;;;;;;4977125;28;20787;-71
2022/05/29 09:32:05;;;;;;;1.35;1.25;;;23.60;41.80;;;;;;4975728;28;20576;-70
2022/05/29 09:34:32;;;;;;;2.30;1.65;;;23.60;42.00;;;;;;4975447;28;20204;-71
2022/05/29 09:37:05;;;;;;;1.73;1.50;;;23.50;41.70;;;;;;4976593;28;20237;-71
2022/05/29 09:39:34;;;;;;;1.65;1.52;;;23.50;41.80;;;;;;4975701;28;20201;-70
2022/05/29 09:42:03;;;;;;;2.03;1.67;;;23.50;41.80;;;;;;4976590;28;20225;-71
2022/05/29 09:44:30;;;;;;;2.25;1.52;;;23.60;42.00;;;;;;4974753;28;20685;-70
2022/05/29 09:49:40;;;;;;;1.67;1.50;;;23.60;42.00;;;;;;4976690;28;20213;-71
2022/05/29 09:50:00;;;;;;;3.20;1.63;;;23.60;41.80;;;;;;4976800;28;20183;-71
2022/05/29 09:52:30;;;;;;;2.00;1.40;;;23.60;41.80;;;;;;4975291;28;20237;-70
2022/05/29 09:54:59;;;;;;;2.10;1.70;;;23.60;41.90;;;;;;4975378;28;20191;-71
2022/05/29 09:57:27;;;;;;;1.70;1.40;;;23.60;41.70;;;;;;4975952;28;20257;-70
2022/05/29 09:59:56;;;;;;;1.60;1.50;;;23.60;41.50;;;;;;4976586;28;20201;-71
2022/05/29 10:02:27;;;;;;;2.67;1.40;;;23.60;41.70;;;;;;4975697;28;20202;-71
2022/05/29 10:04:56;;;;;;;1.55;1.38;;;23.60;41.90;;;;;;4975628;28;20202;-70
2022/05/29 10:07:32;;;;;;;2.20;1.63;;;23.60;42.30;;;;;;4975084;28;20214;-70
2022/05/29 10:10:01;;;;;;;1.85;1.50;;;23.50;41.70;;;;;;4975128;28;20300;-70
2022/05/29 10:12:37;;;;;;;4.05;1.48;;;23.50;41.50;;;;;;4974863;28;20194;-70
2022/05/29 10:15:06;;;;;;;2.95;1.45;;;23.50;41.70;;;;;;4976231;28;20193;-71
2022/05/29 10:17:35;;;;;;;2.10;1.60;;;23.50;41.60;;;;;;4975352;28;20222;-70
2022/05/29 10:20:02;;;;;;;1.75;1.60;;;23.40;41.70;;;;;;4974771;28;20194;-70
2022/05/29 10:22:31;;;;;;;1.83;1.67;;;23.40;41.60;;;;;;4975838;28;20277;-70
2022/05/29 10:24:59;;;;;;;1.58;1.42;;;23.40;41.70;;;;;;4974974;28;20245;-71
2022/05/29 10:27:29;;;;;;;2.28;1.70;;;23.40;41.40;;;;;;4975715;28;20225;-70
2022/05/29 10:29:58;;;;;;;1.45;1.33;;;23.40;41.50;;;;;;4974567;28;20285;-70
2022/05/29 10:32:27;;;;;;;3.00;1.60;;;23.30;41.60;;;;;;4974426;28;20750;-70
2022/05/29 10:35:04;;;;;;;2.40;1.42;;;23.30;42.40;;;;;;4974313;28;20206;-70
2022/05/29 10:37:37;;;;;;;2.38;1.50;;;23.30;41.80;;;;;;4974314;28;20226;-70
2022/05/29 10:40:17;;;;;;;1.98;1.55;;;23.20;41.80;;;;;;4974812;28;20229;-70
2022/05/29 10:42:45;;;;;;;1.70;1.30;;;23.10;41.80;;;;;;4974313;28;20743;-70
2022/05/29 10:45:20;;;;;;;1.65;1.30;;;23.10;42.00;;;;;;4974278;28;20754;-70
2022/05/29 10:47:58;;;;;;;1.58;1.30;;;23.00;41.80;;;;;;4974187;28;20269;-70
2022/05/29 10:50:29;;;;;;;1.63;1.40;;;22.90;42.50;;;;;;4974249;28;20245;-69
2022/05/29 10:53:03;;;;;;;1.58;1.48;;;22.90;42.30;;;;;;4974308;28;20228;-70
2022/05/29 10:55:44;;;;;;;2.22;1.50;;;22.90;42.50;;;;;;4973346;28;20194;-70
2022/05/29 10:58:31;;;;;;;1.65;1.50;;;22.80;42.60;;;;;;4974063;28;20706;-70
2022/05/29 11:03:17;;;;;;;1.60;1.30;;;22.70;42.30;;;;;;4964804;28;20206;-70
2022/05/29 11:04:11;;;;;;;1.40;1.30;;;22.70;42.70;;;;;;4974238;28;20655;-70
2022/05/29 11:06:48;;;;;;;1.45;1.35;;;22.60;42.70;;;;;;4974100;28;20210;-70
2022/05/29 11:09:38;;;;;;;2.13;1.70;;;22.60;43.00;;;;;;4974153;28;20198;-71
2022/05/29 11:12:07;;;;;;;1.75;1.40;;;22.50;43.20;;;;;;4974263;28;20197;-70
2022/05/29 11:14:45;;;;;;;1.42;1.20;;;22.50;43.90;;;;;;4974195;28;20198;-70
2022/05/29 11:17:15;;;;;;;1.55;1.40;;;22.40;43.80;;;;;;4973678;28;20237;-70
2022/05/29 11:20:05;;;;;;;1.42;1.33;;;22.40;44.00;;;;;;4973813;28;20221;-70
2022/05/29 11:22:37;;;;;;;2.05;1.50;;;22.30;44.10;;;;;;4973809;28;20198;-70
2022/05/29 11:25:15;;;;;;;1.98;1.50;;;22.30;44.30;;;;;;4975313;28;20543;-70
2022/05/29 11:28:07;;;;;;;1.77;1.50;;;22.30;44.40;;;;;;4973643;28;20590;-70
2022/05/29 11:30:38;;;;;;;1.55;1.40;;;22.20;44.40;;;;;;4973847;28;20198;-70
2022/05/29 11:33:12;;;;;;;2.38;1.33;;;22.20;44.60;;;;;;4974047;28;20198;-70
2022/05/29 11:35:55;;;;;;;2.78;1.70;;;22.20;44.90;;;;;;4973799;28;20228;-70
2022/05/29 11:38:48;;;;;;;2.78;1.60;;;22.20;45.20;;;;;;4974981;28;20202;-70
2022/05/29 11:41:20;;;;;;;1.50;1.40;;;22.20;45.60;;;;;;4977534;28;20225;-70
2022/05/29 11:43:50;;;;;;;2.00;1.35;;;22.20;45.80;;;;;;4979829;28;20190;-71
2022/05/29 11:52:00;;;;;;;1.70;1.60;;;22.30;45.80;;;;;;4921885;28;20199;-71
2022/05/29 11:54:31;;;;;;;1.48;1.38;;;22.40;45.00;;;;;;4973447;28;20202;-70
2022/05/29 11:57:01;;;;;;;2.55;1.67;;;22.40;45.10;;;;;;4973370;28;20305;-70
2022/05/29 11:59:39;;;;;;;1.70;1.58;;;22.40;44.70;;;;;;4973543;28;20198;-70
2022/05/29 12:02:09;;;;;;;1.88;1.73;;;22.50;44.50;;;;;;4973464;28;20650;-70
2022/05/29 12:04:37;;;;;;;2.33;1.50;;;22.60;44.30;;;;;;4973540;28;20573;-70
2022/05/29 12:07:07;;;;;;;1.60;1.45;;;22.60;44.40;;;;;;4975587;28;20214;-70
2022/05/29 12:09:36;;;;;;;1.55;1.40;;;22.70;44.30;;;;;;4977177;28;20293;-70
2022/05/29 12:12:08;;;;;;;1.95;1.73;;;22.70;44.30;;;;;;4977111;28;20288;-70
2022/05/29 12:14:37;;;;;;;1.70;1.48;;;22.70;44.20;;;;;;4977160;28;20201;-70
2022/05/29 12:17:07;;;;;;;2.03;1.60;;;22.70;44.00;;;;;;4976954;28;20236;-70
2022/05/29 12:19:38;;;;;;;1.52;1.42;;;22.70;44.10;;;;;;4978189;28;20186;-70
2022/05/29 12:22:06;;;;;;;1.40;1.30;;;22.70;44.00;;;;;;4976984;28;20265;-70
2022/05/29 12:24:36;;;;;;;1.55;1.42;;;22.70;43.90;;;;;;4978090;28;20284;-70
2022/05/29 12:27:06;;;;;;;1.50;1.40;;;22.60;43.90;;;;;;4976770;28;20218;-70
2022/05/29 12:29:36;;;;;;;1.55;1.45;;;22.60;43.90;;;;;;4978008;28;20194;-70
2022/05/29 12:32:03;;;;;;;1.77;1.48;;;22.60;43.90;;;;;;4978397;28;20226;-70
2022/05/29 12:34:34;;;;;;;1.70;1.40;;;22.60;44.00;;;;;;4976806;28;20290;-70
2022/05/29 12:37:19;;;;;;;1.30;1.20;;;22.50;44.10;;;;;;4976495;28;20300;-71
2022/05/29 12:48:23;;;;;;;2.30;1.50;;;22.40;44.10;;;;;;5127296;23;20241;-69
2022/05/29 12:59:28;;;;;;;3.92;1.92;;;22.30;43.90;;;;;;4939489;29;20210;-70
2022/05/29 13:02:02;;;;;;;1.83;1.60;;;22.20;44.10;;;;;;4938300;29;20223;-71
2022/05/29 13:05:06;;;;;;;3.95;1.73;;;22.20;43.60;;;;;;4938146;29;20202;-69
2022/05/29 13:07:37;;;;;;;2.58;1.73;;;22.10;43.20;;;;;;4939635;29;20222;-70
2022/05/29 13:10:13;;;;;;;2.45;1.73;;;22.10;42.90;;;;;;5158392;23;20247;-70
2022/05/29 13:12:43;;;;;;;2.20;1.40;;;22.10;42.80;;;;;;4995674;28;20193;-69
2022/05/29 13:15:11;;;;;;;2.08;1.50;;;22.10;42.80;;;;;;4995498;28;20193;-70
2022/05/29 13:17:38;;;;;;;3.25;1.50;;;22.00;42.40;;;;;;4981939;28;20217;-69
2022/05/29 13:23:02;;;;;;;2.90;1.60;;;22.00;41.50;;;;;;5005514;23;20229;-69
2022/05/29 13:25:29;;;;;;;3.63;1.50;;;22.00;41.80;;;;;;4997144;28;20189;-70
2022/05/29 13:27:57;;;;;;;3.63;1.67;;;21.90;41.20;;;;;;4979160;28;20237;-70
2022/05/29 13:30:56;;;;;;;2.47;1.60;;;21.70;41.10;;;;;;5055858;23;20235;-69
2022/05/29 13:33:46;;;;;;;1.83;1.30;;;21.70;41.50;;;;;;4955367;29;20298;-69
2022/05/29 13:37:04;;;;;;;2.85;1.58;;;21.60;39.60;;;;;;4956803;28;20201;-69
2022/05/29 13:39:52;;;;;;;2.85;1.60;;;21.40;40.10;;;;;;4956418;28;20205;-69
2022/05/29 13:42:30;;;;;;;2.17;1.40;;;21.30;41.50;;;;;;4957126;28;20199;-70
2022/05/29 13:44:57;;;;;;;2.03;1.40;;;21.30;40.90;;;;;;4958199;28;20206;-69
2022/05/29 13:47:36;;;;;;;3.35;1.75;;;21.30;39.90;;;;;;4956616;28;20219;-70
2022/05/29 13:50:05;;;;;;;2.22;1.50;;;21.30;41.50;;;;;;4957109;28;20199;-69
2022/05/29 13:52:33;;;;;;;2.28;1.50;;;21.20;40.20;;;;;;4957931;28;20209;-69